Time;durP1;ratioP1;P1;durP2;ratioP2;P2;SDS_P1;SDS_P2;PMS_P1;PMS_P2;Temp;Humidity;BMP_temperature;BMP_pressure;BME280_temperature;BME280_humidity;BME280_pressure;Samples;Min_cycle;Max_cycle;Signal;HPM_P1;HPM_P2
2022/08/22 00:02:44;;;;;;;11.93;3.60;;;16.30;99.90;;;;;;5088875;28;20043;-85
2022/08/22 00:05:46;;;;;;;8.02;3.80;;;16.50;99.90;;;;;;5087425;28;20120;-85
2022/08/22 00:08:55;;;;;;;7.95;3.55;;;16.20;99.90;;;;;;5095630;28;20101;-85
2022/08/22 00:12:02;;;;;;;9.60;3.40;;;16.30;99.90;;;;;;5069736;28;20476;-85
2022/08/22 00:15:00;;;;;;;10.18;3.35;;;16.40;99.90;;;;;;5094408;28;20113;-85
2022/08/22 00:18:03;;;;;;;11.15;3.67;;;16.00;99.90;;;;;;5094522;28;20145;-85
2022/08/22 00:21:05;;;;;;;10.07;3.75;;;16.10;99.90;;;;;;5095142;28;20454;-85
2022/08/22 00:24:00;;;;;;;7.65;3.15;;;16.10;99.90;;;;;;5094790;28;20043;-85
2022/08/22 00:26:53;;;;;;;7.15;3.00;;;16.00;99.90;;;;;;5094278;28;20399;-85
2022/08/22 00:29:46;;;;;;;9.30;4.03;;;16.00;99.90;;;;;;5070781;28;20030;-85
2022/08/22 00:32:49;;;;;;;13.27;3.67;;;15.80;99.90;;;;;;5094800;28;20092;-85
2022/08/22 00:35:38;;;;;;;11.40;3.50;;;16.30;99.90;;;;;;5094921;28;20081;-85
2022/08/22 00:38:34;;;;;;;12.50;3.58;;;15.80;99.90;;;;;;5092803;28;20297;-85
2022/08/22 00:41:41;;;;;;;8.02;3.40;;;16.00;99.90;;;;;;5093253;28;20039;-85
2022/08/22 00:44:57;;;;;;;7.05;3.40;;;15.80;99.90;;;;;;5093178;28;20185;-85
2022/08/22 00:47:47;;;;;;;9.07;3.90;;;15.70;99.90;;;;;;5075929;28;20039;-85
2022/08/22 00:51:00;;;;;;;10.18;3.75;;;15.70;99.90;;;;;;5094771;28;20502;-85
2022/08/22 00:53:50;;;;;;;11.02;3.47;;;15.80;99.90;;;;;;5093887;28;20047;-85
2022/08/22 00:57:04;;;;;;;7.80;3.40;;;15.60;99.90;;;;;;5094619;28;20031;-85
2022/08/22 00:59:54;;;;;;;;;;;15.90;99.90;;;;;;5061251;28;20554;-85
2022/08/22 01:03:16;;;;;;;10.27;3.35;;;15.70;99.90;;;;;;5071285;28;19915;-86
2022/08/22 01:06:19;;;;;;;9.50;3.97;;;15.60;99.90;;;;;;5074191;28;20062;-84
2022/08/22 01:09:16;;;;;;;7.80;3.78;;;15.80;99.90;;;;;;5074275;28;20039;-85
2022/08/22 01:12:16;;;;;;;7.57;3.20;;;15.60;99.90;;;;;;5074042;28;20055;-85
2022/08/22 01:15:08;;;;;;;8.25;3.67;;;15.80;99.90;;;;;;5089287;28;20495;-85
2022/08/22 01:18:15;;;;;;;10.82;3.70;;;15.80;99.90;;;;;;5094276;28;20031;-84
2022/08/22 01:21:43;;;;;;;11.50;3.70;;;16.20;99.90;;;;;;5071445;28;20456;-85
2022/08/22 01:25:17;;;;;;;12.60;4.00;;;15.50;99.90;;;;;;5093631;28;20093;-85
2022/08/22 01:28:32;;;;;;;12.18;4.70;;;15.40;99.90;;;;;;5086797;28;20059;-85
2022/08/22 01:31:50;;;;;;;9.43;3.63;;;15.30;99.90;;;;;;5072031;28;20191;-85
2022/08/22 01:34:52;;;;;;;9.27;3.40;;;15.30;99.90;;;;;;5072469;28;20035;-85
2022/08/22 01:37:58;;;;;;;9.88;3.92;;;16.10;99.90;;;;;;5071791;28;20128;-85
2022/08/22 01:41:00;;;;;;;11.68;4.30;;;15.30;99.90;;;;;;5071699;28;20083;-85
2022/08/22 01:43:45;;;;;;;8.50;4.07;;;;;;;;;;5072877;28;20063;-85
2022/08/22 01:46:51;;;;;;;11.52;3.72;;;15.70;99.90;;;;;;5072323;28;20035;-85
2022/08/22 01:49:49;;;;;;;9.85;3.70;;;15.60;99.90;;;;;;5071768;28;20460;-85
2022/08/22 01:52:41;;;;;;;10.18;4.38;;;15.20;99.90;;;;;;5071313;28;20187;-85
2022/08/22 01:55:42;;;;;;;11.43;4.40;;;15.30;99.90;;;;;;5071677;28;20130;-84
2022/08/22 01:58:30;;;;;;;11.23;4.40;;;15.10;99.90;;;;;;5071882;28;20035;-84
2022/08/22 02:01:32;;;;;;;14.93;4.82;;;15.30;99.90;;;;;;5072472;28;20125;-87
2022/08/22 02:04:32;;;;;;;10.13;4.30;;;16.20;99.90;;;;;;5078168;28;20443;-85
2022/08/22 02:07:16;;;;;;;9.10;4.90;;;;;;;;;;5070729;28;20074;-87
2022/08/22 02:10:12;;;;;;;12.10;4.88;;;15.10;99.90;;;;;;5071325;28;20063;-85
2022/08/22 02:13:18;;;;;;;11.70;5.22;;;15.00;99.90;;;;;;5072393;28;20058;-84
2022/08/22 02:16:35;;;;;;;12.27;6.05;;;15.00;99.90;;;;;;5071550;28;20101;-84
2022/08/22 02:19:34;;;;;;;12.02;6.30;;;16.00;99.90;;;;;;5078299;28;20079;-85
2022/08/22 02:22:21;;;;;;;9.32;5.07;;;15.10;99.90;;;;;;5069520;28;20082;-87
2022/08/22 02:25:22;;;;;;;11.13;5.85;;;15.10;99.90;;;;;;5072276;28;20040;-85
2022/08/22 02:28:11;;;;;;;14.55;5.43;;;15.20;99.90;;;;;;5070381;28;20510;-85
2022/08/22 02:31:12;;;;;;;11.93;5.63;;;15.30;99.90;;;;;;5072354;28;20125;-85
2022/08/22 02:34:01;;;;;;;10.88;4.95;;;15.10;99.90;;;;;;5072465;28;20040;-84
2022/08/22 02:36:52;;;;;;;15.27;5.90;;;15.10;99.90;;;;;;5065255;28;20040;-84
2022/08/22 02:39:48;;;;;;;13.45;5.38;;;15.20;99.90;;;;;;5071767;28;20087;-84
2022/08/22 02:42:58;;;;;;;10.25;5.65;;;14.90;99.90;;;;;;5071819;28;20522;-85
2022/08/22 02:45:54;;;;;;;10.75;5.32;;;15.00;99.90;;;;;;5068523;28;20035;-85
2022/08/22 02:49:01;;;;;;;8.93;4.32;;;15.80;99.90;;;;;;5064670;28;20035;-84
2022/08/22 02:52:04;;;;;;;9.82;5.15;;;14.80;99.90;;;;;;5069657;28;20086;-84
2022/08/22 02:55:12;;;;;;;9.73;4.50;;;14.60;99.90;;;;;;5072180;28;20040;-84
2022/08/22 02:58:21;;;;;;;8.73;5.03;;;14.90;99.90;;;;;;5072088;28;20138;-84
2022/08/22 03:01:16;;;;;;;10.52;5.07;;;14.80;99.90;;;;;;5041370;28;20051;-84
2022/08/22 03:04:17;;;;;;;8.95;4.28;;;15.00;99.90;;;;;;5065410;28;20439;-84
2022/08/22 03:07:13;;;;;;;11.32;4.80;;;14.50;99.90;;;;;;5069577;28;20516;-84
2022/08/22 03:10:27;;;;;;;9.95;4.47;;;14.80;99.90;;;;;;5071984;28;20035;-84
2022/08/22 03:13:44;;;;;;;11.65;5.07;;;14.80;99.90;;;;;;5072229;28;20064;-84
2022/08/22 03:17:07;;;;;;;11.95;5.03;;;14.80;99.90;;;;;;5091712;28;20503;-85
2022/08/22 03:20:14;;;;;;;11.75;5.75;;;14.70;99.90;;;;;;5036673;28;20052;-85
2022/08/22 03:23:06;;;;;;;12.18;5.50;;;14.70;99.90;;;;;;5075099;28;20494;-85
2022/08/22 03:26:18;;;;;;;10.38;5.72;;;14.50;99.90;;;;;;5065774;28;20035;-85
2022/08/22 03:29:11;;;;;;;15.80;6.00;;;14.70;99.90;;;;;;5091860;28;20026;-85
2022/08/22 03:32:14;;;;;;;11.70;5.50;;;14.90;99.90;;;;;;5091769;28;20055;-85
2022/08/22 03:35:02;;;;;;;10.82;5.50;;;14.70;99.90;;;;;;5075375;28;20055;-85
2022/08/22 03:37:51;;;;;;;16.10;6.13;;;14.80;99.90;;;;;;5071274;28;20940;-85
2022/08/22 03:41:00;;;;;;;11.80;6.95;;;14.70;99.90;;;;;;5071380;28;20136;-85
2022/08/22 03:44:29;;;;;;;13.60;7.35;;;14.80;99.90;;;;;;5071133;28;20094;-84
2022/08/22 03:47:20;;;;;;;18.90;8.75;;;15.00;99.90;;;;;;5058859;28;20580;-85
2022/08/22 03:50:54;;;;;;;13.85;8.80;;;14.90;99.90;;;;;;5071516;28;20035;-85
2022/08/22 03:53:44;;;;;;;19.20;8.23;;;14.90;99.90;;;;;;5071027;28;20405;-86
2022/08/22 03:57:10;;;;;;;15.60;7.60;;;14.90;99.90;;;;;;5071699;28;20035;-85
2022/08/22 04:00:28;;;;;;;12.48;7.80;;;14.90;99.90;;;;;;5070432;28;20055;-85
2022/08/22 04:03:52;;;;;;;11.50;7.05;;;14.90;99.90;;;;;;5064376;28;20120;-84
2022/08/22 04:06:54;;;;;;;14.38;8.70;;;14.90;99.90;;;;;;5070047;28;20117;-85
2022/08/22 04:10:01;;;;;;;12.05;8.52;;;14.90;99.90;;;;;;5068025;28;20036;-85
2022/08/22 04:12:56;;;;;;;12.35;7.78;;;14.90;99.90;;;;;;5057211;28;20051;-85
2022/08/22 04:16:18;;;;;;;14.77;8.27;;;15.00;99.90;;;;;;5082223;28;20541;-84
2022/08/22 04:19:24;;;;;;;16.67;8.50;;;14.90;99.90;;;;;;5069484;28;20047;-85
2022/08/22 04:22:11;;;;;;;17.83;8.57;;;15.00;99.90;;;;;;5095168;28;20055;-84
2022/08/22 04:24:58;;;;;;;11.40;8.88;;;15.00;99.90;;;;;;5081090;28;20507;-85
2022/08/22 04:27:54;;;;;;;16.70;9.25;;;15.00;99.90;;;;;;5070650;28;20495;-85
2022/08/22 04:31:02;;;;;;;16.90;8.98;;;14.90;99.90;;;;;;5062248;28;20039;-85
2022/08/22 04:34:14;;;;;;;15.43;9.80;;;14.90;99.90;;;;;;5073850;28;20456;-84
2022/08/22 04:37:26;;;;;;;14.15;8.80;;;14.90;99.90;;;;;;5074147;28;20036;-84
2022/08/22 04:40:18;;;;;;;17.85;10.20;;;14.80;99.90;;;;;;5073629;28;20112;-85
2022/08/22 04:43:36;;;;;;;12.70;9.20;;;14.80;99.90;;;;;;5074733;28;20467;-84
2022/08/22 04:46:38;;;;;;;14.57;9.15;;;14.80;99.90;;;;;;5073651;28;20090;-84
2022/08/22 04:49:37;;;;;;;14.75;8.68;;;14.80;99.90;;;;;;5062786;28;20518;-84
2022/08/22 04:52:45;;;;;;;16.20;8.98;;;14.80;99.90;;;;;;5073376;28;20085;-85
2022/08/22 04:56:05;;;;;;;19.20;8.98;;;14.80;99.90;;;;;;5073367;28;20499;-84
2022/08/22 04:58:58;;;;;;;16.20;8.77;;;14.80;99.90;;;;;;5062573;28;20037;-85
2022/08/22 05:01:52;;;;;;;15.43;8.60;;;14.80;99.90;;;;;;5065252;28;20446;-85
2022/08/22 05:05:18;;;;;;;16.98;8.57;;;14.80;99.90;;;;;;5074305;28;20036;-85
2022/08/22 05:08:08;;;;;;;13.18;7.85;;;14.80;99.90;;;;;;5073562;28;20454;-84
2022/08/22 05:10:53;;;;;;;18.70;7.55;;;14.80;99.90;;;;;;5071347;28;20053;-84
2022/08/22 05:13:43;;;;;;;16.13;7.90;;;14.80;99.90;;;;;;5078580;28;20043;-84
2022/08/22 05:16:33;;;;;;;15.75;7.65;;;14.80;99.90;;;;;;5094353;28;20039;-85
2022/08/22 05:19:32;;;;;;;13.27;7.32;;;14.60;99.90;;;;;;5094149;28;20545;-85
2022/08/22 05:22:22;;;;;;;15.70;7.78;;;14.90;99.90;;;;;;5083935;28;20047;-87
2022/08/22 05:25:11;;;;;;;14.40;7.30;;;14.90;99.90;;;;;;5068410;28;20040;-84
2022/08/22 05:28:28;;;;;;;13.73;7.40;;;15.00;99.90;;;;;;5070741;28;20112;-84
2022/08/22 05:31:22;;;;;;;12.75;6.97;;;15.10;99.90;;;;;;5071988;28;20071;-84
2022/08/22 05:34:13;;;;;;;16.55;7.28;;;15.10;99.90;;;;;;5070129;28;20094;-84
2022/08/22 05:37:02;;;;;;;16.08;6.78;;;15.20;99.90;;;;;;5071985;28;20078;-85
2022/08/22 05:39:51;;;;;;;11.85;6.15;;;15.30;99.90;;;;;;5072335;28;20118;-85
2022/08/22 05:42:36;;;;;;;16.00;7.38;;;15.30;99.90;;;;;;5072232;28;20043;-84
2022/08/22 05:45:21;;;;;;;15.00;7.18;;;15.40;99.90;;;;;;5071917;28;20059;-84
2022/08/22 05:48:19;;;;;;;12.63;7.45;;;15.50;99.90;;;;;;5071245;28;20043;-85
2022/08/22 05:51:20;;;;;;;15.15;7.25;;;15.50;99.90;;;;;;5071444;28;20472;-84
2022/08/22 05:54:20;;;;;;;15.95;6.95;;;15.60;99.90;;;;;;5071566;28;20636;-84
2022/08/22 05:57:12;;;;;;;11.77;7.32;;;15.70;99.90;;;;;;5071066;28;20815;-84
2022/08/22 06:00:09;;;;;;;16.40;7.40;;;15.80;99.90;;;;;;5069828;28;20063;-84
2022/08/22 06:03:24;;;;;;;11.75;6.38;;;15.80;99.90;;;;;;5069281;28;20441;-84
2022/08/22 06:06:18;;;;;;;10.57;6.72;;;15.90;99.90;;;;;;5070855;28;20171;-85
2022/08/22 06:09:15;;;;;;;11.05;5.82;;;16.00;99.90;;;;;;5070672;28;20040;-84
2022/08/22 06:12:09;;;;;;;16.40;6.57;;;16.10;99.90;;;;;;5070152;28;20047;-84
2022/08/22 06:15:12;;;;;;;17.17;7.05;;;16.30;99.90;;;;;;5067146;28;20031;-84
2022/08/22 06:18:02;;;;;;;12.20;5.72;;;16.20;99.90;;;;;;5071839;28;20036;-84
2022/08/22 06:20:52;;;;;;;14.40;5.88;;;16.40;99.90;;;;;;5071349;28;20537;-84
2022/08/22 06:23:46;;;;;;;12.65;5.97;;;16.50;99.90;;;;;;5069761;28;20105;-84
2022/08/22 06:26:36;;;;;;;13.88;5.72;;;16.60;99.90;;;;;;5071816;28;20035;-85
2022/08/22 06:29:44;;;;;;;10.88;5.80;;;16.70;99.90;;;;;;5070566;28;20078;-84
2022/08/22 06:32:32;;;;;;;12.05;5.30;;;16.70;99.90;;;;;;5071281;28;20119;-84
2022/08/22 06:36:29;;;;;;;14.32;6.22;;;16.80;99.90;;;;;;5071051;28;20032;-83
2022/08/22 06:39:04;;;;;;;14.25;6.03;;;16.80;99.90;;;;;;5069094;28;20086;-83
2022/08/22 06:41:58;;;;;;;10.63;5.20;;;16.90;99.90;;;;;;5070514;28;20051;-83
2022/08/22 06:44:47;;;;;;;12.40;5.63;;;16.90;99.90;;;;;;5069281;28;20116;-84
2022/08/22 06:47:37;;;;;;;11.07;5.70;;;17.00;99.90;;;;;;5070554;28;20110;-84
2022/08/22 06:50:42;;;;;;;14.18;5.75;;;17.10;99.90;;;;;;5070593;28;20028;-83
2022/08/22 06:53:37;;;;;;;12.85;5.90;;;17.20;99.90;;;;;;5069782;28;20087;-84
2022/08/22 06:56:34;;;;;;;13.10;5.00;;;17.30;99.90;;;;;;5070141;28;20110;-84
2022/08/22 06:59:26;;;;;;;9.38;5.30;;;17.40;99.90;;;;;;5071559;28;20028;-84
2022/08/22 07:02:33;;;;;;;12.98;5.50;;;17.50;99.90;;;;;;5070894;28;20035;-84
2022/08/22 07:05:27;;;;;;;10.73;5.13;;;17.50;99.90;;;;;;5062493;28;20089;-84
2022/08/22 07:08:19;;;;;;;9.30;5.03;;;17.60;99.90;;;;;;5071467;28;20095;-84
2022/08/22 07:11:16;;;;;;;13.35;5.88;;;17.70;99.90;;;;;;5070485;28;20052;-84
2022/08/22 07:14:12;;;;;;;8.68;4.40;;;17.80;99.90;;;;;;5078073;28;20088;-84
2022/08/22 07:17:00;;;;;;;9.18;4.28;;;17.90;99.90;;;;;;5091796;28;20039;-85
2022/08/22 07:19:53;;;;;;;11.93;4.30;;;18.00;99.90;;;;;;5082292;28;20043;-85
2022/08/22 07:22:38;;;;;;;11.13;4.35;;;18.00;99.90;;;;;;5069231;28;20097;-84
2022/08/22 07:25:23;;;;;;;12.10;3.85;;;18.10;99.90;;;;;;5063930;28;20503;-84
2022/08/22 07:28:28;;;;;;;9.75;3.78;;;18.20;99.90;;;;;;5070756;28;20393;-85
2022/08/22 07:31:45;;;;;;;11.23;3.95;;;18.20;99.90;;;;;;5067924;28;20178;-84
2022/08/22 07:34:48;;;;;;;11.10;4.15;;;18.30;99.90;;;;;;5069694;28;20032;-83
2022/08/22 07:37:48;;;;;;;9.05;4.03;;;18.40;99.90;;;;;;5071587;28;20098;-84
2022/08/22 07:40:42;;;;;;;11.18;3.85;;;18.50;99.90;;;;;;5065897;28;20043;-83
2022/08/22 07:43:43;;;;;;;10.45;4.15;;;18.60;99.90;;;;;;5071682;28;20097;-83
2022/08/22 07:46:34;;;;;;;12.20;4.18;;;18.70;99.90;;;;;;5067961;28;20487;-84
2022/08/22 07:49:24;;;;;;;11.82;3.80;;;18.80;99.90;;;;;;5079313;28;20108;-85
2022/08/22 07:52:10;;;;;;;12.77;3.90;;;18.90;99.90;;;;;;5074878;28;20047;-84
2022/08/22 07:55:16;;;;;;;18.02;5.00;;;19.00;99.90;;;;;;5071419;28;20060;-86
2022/08/22 07:58:04;;;;;;;8.52;4.28;;;19.10;99.90;;;;;;5075367;28;20396;-86
2022/08/22 08:00:50;;;;;;;12.10;3.63;;;19.20;99.90;;;;;;5074112;28;20036;-86
2022/08/22 08:03:35;;;;;;;9.57;3.72;;;19.20;99.90;;;;;;5073554;28;20055;-87
2022/08/22 08:06:24;;;;;;;14.20;4.18;;;19.30;99.90;;;;;;5074747;28;20090;-86
2022/08/22 08:09:16;;;;;;;12.82;3.38;;;19.50;99.90;;;;;;5073854;28;20054;-87
2022/08/22 08:12:04;;;;;;;8.23;3.35;;;19.60;99.90;;;;;;5071770;28;20052;-88
2022/08/22 08:14:52;;;;;;;15.75;3.88;;;19.70;99.90;;;;;;5088285;28;20039;-85
2022/08/22 08:17:37;;;;;;;11.75;4.05;;;19.70;99.90;;;;;;5091698;28;20403;-87
2022/08/22 08:20:24;;;;;;;15.57;3.42;;;19.90;99.90;;;;;;5087193;28;20031;-88
2022/08/22 08:23:11;;;;;;;15.18;3.78;;;20.00;99.90;;;;;;5062521;28;20040;-84
2022/08/22 08:26:09;;;;;;;12.50;3.67;;;20.20;99.90;;;;;;5072498;28;20055;-84
2022/08/22 08:28:57;;;;;;;10.68;2.90;;;20.20;99.90;;;;;;5074891;28;20032;-85
2022/08/22 08:31:43;;;;;;;9.20;3.33;;;20.20;99.90;;;;;;5069395;28;20040;-85
2022/08/22 08:34:31;;;;;;;13.88;3.55;;;20.30;99.90;;;;;;5074145;28;20108;-84
2022/08/22 08:37:42;;;;;;;8.40;2.70;;;20.40;99.90;;;;;;5073867;28;20475;-83
2022/08/22 08:40:32;;;;;;;10.68;3.15;;;20.50;99.90;;;;;;5074006;28;20044;-84
2022/08/22 08:43:37;;;;;;;10.73;2.95;;;20.70;99.90;;;;;;5074108;28;20108;-83
2022/08/22 08:46:36;;;;;;;8.25;3.05;;;20.80;99.90;;;;;;5070693;28;20504;-83
2022/08/22 08:50:09;;;;;;;11.38;3.03;;;21.10;99.90;;;;;;5074082;28;20116;-85
2022/08/22 08:53:32;;;;;;;11.75;3.42;;;21.20;99.90;;;;;;5079539;28;20130;-84
2022/08/22 08:56:44;;;;;;;13.38;3.00;;;22.10;99.90;;;;;;5073678;28;20494;-84
2022/08/22 08:59:38;;;;;;;12.70;3.00;;;21.30;99.90;;;;;;5073189;28;20086;-84
2022/08/22 09:02:39;;;;;;;9.80;2.80;;;21.40;99.90;;;;;;5066506;28;20161;-85
2022/08/22 09:05:52;;;;;;;10.00;2.60;;;21.50;99.90;;;;;;5073572;28;20495;-84
2022/08/22 09:08:56;;;;;;;12.63;2.83;;;21.90;99.90;;;;;;5073792;28;20459;-84
2022/08/22 09:11:56;;;;;;;8.25;2.47;;;22.60;99.90;;;;;;5074050;28;20055;-84
2022/08/22 09:14:49;;;;;;;10.63;2.72;;;22.70;99.90;;;;;;5070595;28;20036;-84
2022/08/22 09:18:02;;;;;;;12.25;3.40;;;23.10;99.90;;;;;;5067615;28;20041;-85
2022/08/22 09:21:01;;;;;;;12.82;3.13;;;23.40;99.90;;;;;;5074269;28;20031;-84
2022/08/22 09:24:07;;;;;;;12.23;3.28;;;23.50;99.90;;;;;;5072452;28;20447;-84
2022/08/22 09:27:01;;;;;;;11.82;2.70;;;23.40;99.90;;;;;;5069711;28;20116;-85
2022/08/22 09:29:54;;;;;;;;;;;23.50;99.90;;;;;;5073668;28;20495;-83
2022/08/22 09:32:55;;;;;;;12.30;2.50;;;23.50;99.90;;;;;;5062542;28;20401;-87
2022/08/22 09:35:51;;;;;;;12.05;3.22;;;23.70;99.90;;;;;;5078742;28;20116;-85
2022/08/22 09:38:54;;;;;;;11.95;3.20;;;24.00;99.90;;;;;;5072924;28;20157;-85
2022/08/22 09:41:53;;;;;;;10.75;3.05;;;24.30;99.90;;;;;;5067324;28;20085;-86
2022/08/22 09:45:04;;;;;;;14.65;3.55;;;24.60;99.90;;;;;;5063726;28;20090;-86
2022/08/22 09:47:57;;;;;;;12.65;3.58;;;24.80;99.90;;;;;;5073267;28;20082;-87
2022/08/22 09:51:16;;;;;;;9.95;3.20;;;24.90;99.90;;;;;;5072615;28;20032;-87
2022/08/22 09:54:18;;;;;;;9.35;2.55;;;25.10;99.90;;;;;;5072827;28;20115;-87
2022/08/22 09:57:29;;;;;;;10.50;2.65;;;25.40;99.90;;;;;;5057050;28;20063;-86
2022/08/22 10:00:17;;;;;;;15.88;3.22;;;25.40;99.90;;;;;;5066360;28;20534;-87
2022/08/22 10:03:48;;;;;;;9.52;2.50;;;25.40;99.90;;;;;;5072928;28;20043;-83
2022/08/22 10:06:51;;;;;;;10.82;3.00;;;24.90;99.70;;;;;;5072294;28;20431;-86
2022/08/22 10:09:45;;;;;;;12.50;2.47;;;24.60;99.90;;;;;;5072560;28;20537;-86
2022/08/22 10:12:49;;;;;;;8.73;2.33;;;24.30;99.90;;;;;;5071491;28;20087;-86
2022/08/22 10:15:54;;;;;;;7.75;2.47;;;24.20;99.90;;;;;;5065412;28;20098;-84
2022/08/22 10:18:59;;;;;;;8.90;2.90;;;24.10;99.90;;;;;;5083501;28;20035;-85
2022/08/22 10:22:16;;;;;;;10.38;2.60;;;24.00;99.90;;;;;;5070878;28;20039;-86
2022/08/22 10:25:06;;;;;;;7.13;2.10;;;23.90;99.90;;;;;;5066007;28;20055;-84
2022/08/22 10:28:33;;;;;;;9.85;2.78;;;23.70;99.90;;;;;;5071909;28;20027;-86
2022/08/22 10:31:41;;;;;;;8.20;2.70;;;23.80;99.90;;;;;;5010684;28;20628;-85
2022/08/22 10:34:35;;;;;;;6.18;2.17;;;23.80;99.90;;;;;;5062294;28;20035;-86
2022/08/22 10:37:36;;;;;;;;;;;23.80;99.90;;;;;;5072024;28;20031;-87
2022/08/22 10:40:25;;;;;;;7.15;2.80;;;23.70;99.90;;;;;;5072972;28;20003;-85
2022/08/22 10:43:18;;;;;;;10.73;2.80;;;23.70;99.90;;;;;;5070588;28;20035;-85
2022/08/22 10:46:22;;;;;;;6.95;2.22;;;23.80;99.90;;;;;;5070994;28;20047;-84
2022/08/22 10:49:23;;;;;;;8.82;2.47;;;23.80;99.90;;;;;;5074356;28;20063;-84
2022/08/22 10:52:11;;;;;;;8.93;2.55;;;23.70;99.90;;;;;;5074662;28;20043;-85
2022/08/22 10:55:11;;;;;;;11.00;2.75;;;23.70;99.90;;;;;;5074516;28;20038;-85
2022/08/22 10:58:06;;;;;;;7.70;2.35;;;23.70;99.90;;;;;;5075635;28;20040;-85
2022/08/22 11:01:03;;;;;;;8.13;2.50;;;23.60;99.60;;;;;;5071598;28;20051;-85
2022/08/22 11:04:09;;;;;;;12.15;2.30;;;23.70;99.50;;;;;;5067512;28;20105;-86
2022/08/22 11:07:13;;;;;;;9.05;2.08;;;23.80;99.60;;;;;;5074022;28;20091;-85
2022/08/22 11:10:08;;;;;;;7.20;2.00;;;23.90;98.30;;;;;;5070708;28;20036;-85
2022/08/22 11:13:17;;;;;;;11.70;3.03;;;24.00;97.50;;;;;;5070960;28;20599;-85
2022/08/22 11:16:15;;;;;;;9.10;2.47;;;24.10;98.30;;;;;;5074097;28;20032;-85
2022/08/22 11:19:12;;;;;;;6.85;2.00;;;24.20;97.60;;;;;;5072354;28;20054;-85
2022/08/22 11:22:20;;;;;;;9.32;2.75;;;24.30;97.60;;;;;;5070673;28;20128;-86
2022/08/22 11:25:32;;;;;;;8.20;2.28;;;24.50;97.30;;;;;;5065811;28;20043;-86
2022/08/22 11:28:22;;;;;;;7.57;2.67;;;24.80;96.50;;;;;;5063895;28;20105;-86
2022/08/22 11:31:32;;;;;;;9.20;2.88;;;25.00;96.40;;;;;;5071220;28;20047;-87
2022/08/22 11:34:26;;;;;;;7.05;2.20;;;25.20;96.70;;;;;;5070531;28;20037;-86
2022/08/22 11:37:38;;;;;;;7.80;2.53;;;25.20;96.40;;;;;;5071012;28;20135;-86
2022/08/22 11:40:31;;;;;;;7.18;2.45;;;25.50;96.70;;;;;;5065166;28;20082;-87
2022/08/22 11:43:24;;;;;;;6.07;2.30;;;25.60;93.60;;;;;;5062086;28;20181;-87
2022/08/22 11:46:19;;;;;;;5.43;1.92;;;26.00;91.30;;;;;;5069887;28;20134;-88
2022/08/22 11:49:11;;;;;;;5.43;2.00;;;25.80;92.30;;;;;;5068502;28;20538;-90
2022/08/22 11:52:01;;;;;;;8.98;2.30;;;25.80;92.40;;;;;;5066620;28;20125;-88
2022/08/22 11:55:18;;;;;;;7.75;2.30;;;25.70;92.40;;;;;;5071447;28;20548;-87
2022/08/22 11:58:24;;;;;;;7.95;2.25;;;25.60;92.40;;;;;;5071366;28;20031;-86
2022/08/22 12:01:16;;;;;;;6.82;2.63;;;25.40;91.90;;;;;;5070021;28;20085;-89
2022/08/22 12:04:30;;;;;;;6.13;2.05;;;25.20;92.20;;;;;;5071355;28;20426;-88
2022/08/22 12:07:17;;;;;;;8.43;2.20;;;25.20;92.10;;;;;;5068691;28;20059;-88
2022/08/22 12:10:20;;;;;;;5.90;2.05;;;25.20;92.30;;;;;;5070131;28;20032;-88
2022/08/22 12:13:16;;;;;;;6.95;2.40;;;25.20;91.40;;;;;;5070855;28;20059;-87
2022/08/22 12:16:37;;;;;;;10.35;2.00;;;25.20;91.60;;;;;;5067728;28;20530;-88
2022/08/22 12:19:29;;;;;;;6.70;2.28;;;25.30;91.20;;;;;;5079130;28;20039;-87
2022/08/22 12:22:35;;;;;;;11.95;2.67;;;25.30;90.90;;;;;;5070408;28;20043;-83
2022/08/22 12:25:47;;;;;;;9.18;2.10;;;25.20;90.60;;;;;;5070878;28;20040;-85
2022/08/22 12:28:39;;;;;;;6.70;2.10;;;25.20;91.00;;;;;;5069920;28;20039;-83
2022/08/22 12:31:47;;;;;;;7.53;2.30;;;25.70;91.10;;;;;;5074012;28;20040;-84
2022/08/22 12:34:35;;;;;;;8.25;1.92;;;26.20;90.70;;;;;;5071141;28;20487;-85
2022/08/22 12:37:23;;;;;;;8.02;2.60;;;26.10;90.00;;;;;;5073196;28;20028;-84
2022/08/22 12:40:33;;;;;;;12.77;2.50;;;26.40;89.20;;;;;;5074013;28;20125;-85
2022/08/22 12:43:40;;;;;;;7.93;2.13;;;26.60;90.00;;;;;;5074534;28;20081;-84
2022/08/22 12:46:52;;;;;;;7.22;2.10;;;27.00;89.40;;;;;;5074896;28;20561;-84
2022/08/22 12:49:55;;;;;;;11.40;2.53;;;27.10;88.40;;;;;;5072680;28;20392;-85
2022/08/22 12:53:05;;;;;;;7.25;2.17;;;27.10;87.10;;;;;;5074118;28;20064;-86
2022/08/22 12:56:03;;;;;;;7.13;3.05;;;27.00;87.50;;;;;;5072815;28;20056;-85
2022/08/22 12:59:14;;;;;;;9.05;2.58;;;26.80;86.90;;;;;;5073625;28;20095;-86
2022/08/22 13:02:01;;;;;;;6.78;2.00;;;26.90;87.50;;;;;;5065717;28;20090;-84
2022/08/22 13:04:59;;;;;;;8.13;2.40;;;26.90;87.30;;;;;;5072449;28;20085;-86
2022/08/22 13:08:08;;;;;;;8.80;2.60;;;26.70;88.50;;;;;;5073294;28;20058;-85
2022/08/22 13:11:04;;;;;;;10.38;2.47;;;26.50;88.60;;;;;;5071092;28;20052;-86
2022/08/22 13:13:54;;;;;;;8.32;2.42;;;26.40;88.20;;;;;;5072452;28;20039;-86
2022/08/22 13:16:45;;;;;;;5.30;2.42;;;26.50;90.10;;;;;;5089082;28;20035;-86
2022/08/22 13:19:51;;;;;;;9.38;2.30;;;26.80;88.10;;;;;;5089395;28;20487;-86
2022/08/22 13:22:40;;;;;;;9.98;2.90;;;27.00;87.20;;;;;;5068121;28;20089;-86
2022/08/22 13:25:29;;;;;;;8.45;2.40;;;27.20;86.40;;;;;;5074640;28;20039;-86
2022/08/22 13:28:14;;;;;;;8.55;2.40;;;;;;;;;;5077048;28;20043;-84
2022/08/22 13:31:00;;;;;;;9.27;2.33;;;27.50;85.60;;;;;;5060938;28;20063;-85
2022/08/22 13:33:46;;;;;;;9.02;2.30;;;;;;;;;;5072290;28;20043;-85
2022/08/22 13:36:40;;;;;;;9.10;2.83;;;27.60;85.30;;;;;;5076811;28;20085;-84
2022/08/22 13:39:31;;;;;;;7.80;2.22;;;27.70;94.50;;;;;;5061063;28;20032;-85
2022/08/22 13:42:23;;;;;;;6.30;2.00;;;27.70;85.20;;;;;;5069640;28;20142;-83
2022/08/22 13:45:14;;;;;;;7.20;2.25;;;28.30;96.30;;;;;;5077050;28;20487;-83
2022/08/22 13:48:06;;;;;;;9.00;2.45;;;27.80;84.50;;;;;;5059770;28;20082;-83
2022/08/22 13:51:15;;;;;;;7.88;2.20;;;27.00;93.00;;;;;;5072839;28;20602;-83
2022/08/22 13:54:20;;;;;;;6.35;2.35;;;27.70;94.80;;;;;;5072375;28;20067;-83
2022/08/22 13:57:29;;;;;;;6.50;2.15;;;28.00;93.80;;;;;;5062255;28;20094;-82
2022/08/22 14:00:51;;;;;;;7.47;2.40;;;27.70;95.20;;;;;;5081294;28;20035;-83
2022/08/22 14:04:04;;;;;;;5.28;2.08;;;27.50;94.70;;;;;;5072993;28;20063;-85
2022/08/22 14:06:48;;;;;;;6.50;2.40;;;;;;;;;;5070243;28;20116;-83
2022/08/22 14:09:51;;;;;;;6.60;2.42;;;27.30;81.50;;;;;;5072068;28;20039;-85
2022/08/22 14:12:55;;;;;;;8.82;2.22;;;26.90;82.30;;;;;;5073167;28;20083;-84
2022/08/22 14:15:40;;;;;;;10.60;2.42;;;;;;;;;;5057178;28;20100;-85
2022/08/22 14:18:30;;;;;;;5.47;1.98;;;26.60;85.20;;;;;;5091189;28;20090;-86
2022/08/22 14:21:26;;;;;;;6.85;2.65;;;26.30;92.80;;;;;;5068810;28;20094;-85
2022/08/22 14:24:20;;;;;;;7.50;2.30;;;27.40;93.30;;;;;;5063827;28;20031;-85
2022/08/22 14:27:37;;;;;;;8.60;2.58;;;27.60;93.10;;;;;;5061839;28;20044;-85
2022/08/22 14:30:25;;;;;;;10.60;1.92;;;27.40;81.80;;;;;;5072327;28;20072;-86
2022/08/22 14:33:21;;;;;;;10.82;2.08;;;27.30;92.10;;;;;;5063487;28;20519;-85
2022/08/22 14:36:35;;;;;;;7.15;1.98;;;26.90;91.70;;;;;;5068316;28;20494;-85
2022/08/22 14:39:22;;;;;;;;;;;27.20;82.50;;;;;;5060317;28;20423;-84
2022/08/22 14:42:28;;;;;;;8.63;2.33;;;27.40;83.30;;;;;;5071806;28;19919;-85
2022/08/22 14:45:22;;;;;;;7.40;2.20;;;27.60;81.10;;;;;;5071547;28;20079;-85
2022/08/22 14:48:23;;;;;;;8.48;2.40;;;27.80;90.80;;;;;;5054429;28;20393;-85
2022/08/22 14:51:17;;;;;;;7.38;2.22;;;27.70;80.50;;;;;;5066507;28;20093;-86
2022/08/22 14:54:19;;;;;;;5.97;2.05;;;27.70;87.40;;;;;;5068978;28;20171;-86
2022/08/22 14:57:10;;;;;;;7.72;2.00;;;27.20;78.80;;;;;;5069010;28;20452;-87
2022/08/22 14:59:55;;;;;;;7.05;1.83;;;;;;;;;;5070338;28;20467;-85
2022/08/22 15:02:40;;;;;;;10.13;2.45;;;26.80;78.30;;;;;;5072010;28;20051;-85
2022/08/22 15:05:25;;;;;;;5.05;1.90;;;;;;;;;;5071617;28;20540;-86
2022/08/22 15:08:11;;;;;;;7.47;2.20;;;26.40;80.20;;;;;;5076467;28;20039;-86
2022/08/22 15:11:09;;;;;;;11.35;2.45;;;26.60;91.50;;;;;;5071257;28;20171;-85
2022/08/22 15:14:05;;;;;;;8.57;2.33;;;25.60;94.50;;;;;;5065648;28;20118;-86
2022/08/22 15:16:57;;;;;;;8.70;2.45;;;25.90;91.60;;;;;;5058915;28;20484;-86
2022/08/22 15:19:46;;;;;;;8.65;2.30;;;25.90;84.10;;;;;;5084894;28;20077;-86
2022/08/22 15:22:31;;;;;;;5.20;1.83;;;;;;;;;;5071375;28;20499;-84
2022/08/22 15:25:27;;;;;;;5.90;2.03;;;25.80;91.50;;;;;;5079858;28;20035;-84
2022/08/22 15:28:12;;;;;;;7.38;2.50;;;;;;;;;;5056575;28;20150;-85
2022/08/22 15:30:56;;;;;;;10.73;2.60;;;;;;;;;;5071572;28;20098;-84
2022/08/22 15:33:44;;;;;;;9.18;2.45;;;26.10;83.70;;;;;;5071716;28;20453;-86